createdAt,value
2018-06-04T00:00:34.505Z,7.73
2018-06-04T00:03:11.086Z,8.23
2018-06-04T00:05:48.377Z,7.33
2018-06-04T00:08:25.861Z,10.60
2018-06-04T00:11:01.612Z,8.60
2018-06-04T00:13:36.954Z,9.30
2018-06-04T00:16:13.215Z,9.10
2018-06-04T00:18:48.964Z,8.50
2018-06-04T00:21:24.478Z,8.40
2018-06-04T00:24:01.499Z,9.07
2018-06-04T00:26:39.186Z,8.97
2018-06-04T00:29:14.910Z,10.33
2018-06-04T00:31:52.116Z,8.43
2018-06-04T00:34:27.367Z,8.37
2018-06-04T00:37:02.796Z,8.47
2018-06-04T00:39:39.056Z,8.40
2018-06-04T00:42:16.775Z,8.93
2018-06-04T00:44:52.937Z,8.43
2018-06-04T00:47:29.492Z,11.40
2018-06-04T00:50:04.518Z,8.47
2018-06-04T00:52:42.111Z,9.53
2018-06-04T00:55:19.081Z,9.77
2018-06-04T00:57:55.148Z,9.60
2018-06-04T01:00:31.016Z,10.07
2018-06-04T01:03:06.247Z,9.07
2018-06-04T01:05:43.016Z,9.67
2018-06-04T01:08:19.685Z,9.70
2018-06-04T01:10:55.634Z,9.83
2018-06-04T01:13:32.098Z,8.57
2018-06-04T01:16:07.241Z,9.60
2018-06-04T01:18:42.895Z,9.97
2018-06-04T01:21:20.068Z,12.60
2018-06-04T01:23:56.156Z,10.00
2018-06-04T01:26:31.805Z,10.27
2018-06-04T01:29:08.060Z,10.20
2018-06-04T01:31:43.887Z,12.27
2018-06-04T01:34:21.072Z,11.20
2018-06-04T01:36:57.867Z,14.07
2018-06-04T01:39:33.096Z,11.37
2018-06-04T01:42:10.478Z,10.30
2018-06-04T01:44:45.989Z,9.90
2018-06-04T01:47:22.893Z,11.97
2018-06-04T01:49:58.451Z,10.80
2018-06-04T01:52:33.463Z,10.23
2018-06-04T01:55:09.434Z,9.30
2018-06-04T01:57:45.082Z,10.27
2018-06-04T02:00:22.889Z,9.83
2018-06-04T02:03:00.981Z,9.87
2018-06-04T02:05:37.446Z,11.40
2018-06-04T02:08:13.391Z,11.77
2018-06-04T02:10:49.458Z,10.70
2018-06-04T02:13:24.386Z,10.73
2018-06-04T02:16:01.683Z,11.97
2018-06-04T02:18:38.979Z,11.60
2018-06-04T02:21:14.698Z,10.83
2018-06-04T02:23:51.722Z,11.00
2018-06-04T02:26:28.216Z,10.50
2018-06-04T02:29:03.903Z,10.13
2018-06-04T02:31:40.697Z,10.57
2018-06-04T02:34:16.954Z,10.97
2018-06-04T02:36:52.583Z,12.30
2018-06-04T02:39:27.924Z,11.07
2018-06-04T02:42:03.568Z,10.80
2018-06-04T02:44:40.654Z,9.33
2018-06-04T02:47:16.306Z,10.57
2018-06-04T02:49:52.827Z,11.10
2018-06-04T02:52:28.229Z,11.13
2018-06-04T02:55:03.648Z,10.93
2018-06-04T02:57:41.760Z,11.27
2018-06-04T03:00:21.095Z,11.70
2018-06-04T03:05:23.583Z,11.87
2018-06-04T03:08:01.267Z,11.43
2018-06-04T03:10:36.951Z,11.63
2018-06-04T03:13:12.272Z,11.47
2018-06-04T03:15:47.817Z,10.43
2018-06-04T03:18:23.660Z,10.33
2018-06-04T03:20:58.759Z,11.57
2018-06-04T03:23:36.398Z,11.50
2018-06-04T03:26:12.744Z,10.53
2018-06-04T03:28:48.005Z,10.90
2018-06-04T03:31:23.042Z,12.20
2018-06-04T03:33:58.283Z,12.10
2018-06-04T03:36:33.808Z,14.40
2018-06-04T03:39:09.366Z,14.83
2018-06-04T03:41:46.537Z,11.67
2018-06-04T03:44:24.147Z,11.27
2018-06-04T03:46:59.379Z,10.23
2018-06-04T03:49:35.844Z,9.97
2018-06-04T03:52:11.371Z,11.00
2018-06-04T03:54:47.745Z,10.50
2018-06-04T03:57:25.393Z,11.47
2018-06-04T04:00:00.995Z,10.87
2018-06-04T04:02:37.571Z,10.97
2018-06-04T04:05:13.208Z,10.50
2018-06-04T04:07:48.583Z,11.50
2018-06-04T04:10:25.139Z,11.67
2018-06-04T04:13:00.975Z,12.20
2018-06-04T04:15:38.676Z,11.87
2018-06-04T04:18:15.859Z,11.27
2018-06-04T04:20:51.702Z,9.97
2018-06-04T04:23:27.248Z,10.77
2018-06-04T04:26:01.978Z,11.67
2018-06-04T04:28:38.656Z,11.30
2018-06-04T04:31:15.208Z,10.63
2018-06-04T04:33:50.968Z,11.83
2018-06-04T04:36:26.511Z,11.03
2018-06-04T04:39:02.983Z,11.07
2018-06-04T04:41:39.357Z,12.10
2018-06-04T04:44:16.617Z,12.43
2018-06-04T04:46:53.461Z,11.37
2018-06-04T04:49:28.152Z,11.70
2018-06-04T04:52:04.686Z,12.20
2018-06-04T04:54:40.031Z,12.00
2018-06-04T04:57:17.839Z,12.83
2018-06-04T04:59:56.106Z,12.60
2018-06-04T05:02:37.121Z,13.33
2018-06-04T05:05:17.335Z,13.47
2018-06-04T05:07:56.600Z,15.67
2018-06-04T05:10:33.966Z,13.60
2018-06-04T05:13:09.547Z,12.00
2018-06-04T05:15:47.047Z,12.70
2018-06-04T05:18:22.267Z,10.73
2018-06-04T05:20:57.929Z,10.63
2018-06-04T05:23:34.917Z,11.27
2018-06-04T05:26:11.986Z,11.70
2018-06-04T05:28:47.737Z,13.50
2018-06-04T05:31:23.171Z,12.17
2018-06-04T05:33:58.924Z,12.83
2018-06-04T05:36:35.190Z,12.87
2018-06-04T05:39:10.633Z,12.23
2018-06-04T05:41:47.275Z,11.60
2018-06-04T05:44:22.551Z,14.10
2018-06-04T05:46:58.195Z,11.60
2018-06-04T05:49:35.261Z,12.33
2018-06-04T05:52:10.291Z,10.80
2018-06-04T05:54:47.264Z,11.03
2018-06-04T05:57:24.450Z,11.60
2018-06-04T05:59:59.599Z,10.67
2018-06-04T06:02:36.340Z,11.03
2018-06-04T06:05:14.462Z,14.43
2018-06-04T06:07:52.681Z,10.40
2018-06-04T06:10:28.118Z,12.90
2018-06-04T06:13:03.570Z,10.47
2018-06-04T06:15:39.414Z,12.03
2018-06-04T06:18:16.096Z,10.47
2018-06-04T06:20:54.397Z,10.77
2018-06-04T06:23:29.733Z,9.83
2018-06-04T06:26:05.087Z,10.20
2018-06-04T06:28:40.313Z,9.67
2018-06-04T06:31:17.424Z,10.53
2018-06-04T06:33:52.012Z,9.83
2018-06-04T06:36:28.210Z,9.87
2018-06-04T06:39:05.739Z,9.30
2018-06-04T06:41:42.048Z,8.97
2018-06-04T06:44:17.586Z,9.90
2018-06-04T06:46:54.369Z,9.87
2018-06-04T06:49:31.029Z,9.93
2018-06-04T06:52:07.186Z,9.50
2018-06-04T06:54:43.464Z,8.97
2018-06-04T06:59:47.878Z,8.90
2018-06-04T07:02:24.457Z,9.50
2018-06-04T07:05:00.524Z,8.77
2018-06-04T07:07:38.114Z,8.30
2018-06-04T07:10:14.959Z,8.33
2018-06-04T07:12:50.032Z,7.87
2018-06-04T07:15:26.484Z,10.47
2018-06-04T07:18:03.559Z,7.80
2018-06-04T07:20:38.385Z,7.90
2018-06-04T07:23:14.136Z,8.63
2018-06-04T07:25:50.577Z,7.47
2018-06-04T07:28:27.704Z,7.57
2018-06-04T07:31:05.922Z,8.23
2018-06-04T07:33:40.077Z,8.57
2018-06-04T07:36:14.445Z,8.30
2018-06-04T07:38:50.887Z,7.77
2018-06-04T07:41:27.763Z,8.10
2018-06-04T07:44:06.046Z,7.77
2018-06-04T07:46:44.503Z,8.00
2018-06-04T07:49:19.733Z,7.80
2018-06-04T07:51:56.405Z,10.50
2018-06-04T07:54:33.485Z,8.07
2018-06-04T07:57:10.047Z,8.40
2018-06-04T07:59:46.015Z,7.87
2018-06-04T08:02:22.469Z,8.43
2018-06-04T08:04:58.234Z,7.40
2018-06-04T08:07:33.878Z,7.73
2018-06-04T08:10:08.664Z,7.40
2018-06-04T08:12:45.674Z,6.70
2018-06-04T08:15:22.442Z,7.00
2018-06-04T08:17:58.007Z,6.50
2018-06-04T08:20:35.364Z,7.33
2018-06-04T08:23:13.498Z,7.07
2018-06-04T08:25:48.802Z,7.10
2018-06-04T08:28:26.303Z,6.67
2018-06-04T08:31:03.108Z,6.97
2018-06-04T08:33:38.727Z,6.20
2018-06-04T08:36:14.791Z,6.63
2018-06-04T08:38:50.035Z,6.83
2018-06-04T08:41:27.325Z,6.27
2018-06-04T08:44:05.378Z,5.80
2018-06-04T08:46:40.502Z,6.10
2018-06-04T08:49:16.102Z,7.67
2018-06-04T08:51:55.244Z,7.13
2018-06-04T08:54:32.325Z,6.00
2018-06-04T08:57:08.072Z,5.50
2018-06-04T08:59:44.023Z,5.20
2018-06-04T09:02:19.146Z,4.93
2018-06-04T09:04:55.739Z,6.13
2018-06-04T09:07:30.146Z,5.80
2018-06-04T09:10:06.820Z,4.50
2018-06-04T09:12:43.503Z,6.53
2018-06-04T09:15:19.658Z,4.73
2018-06-04T09:17:57.140Z,4.63
2018-06-04T09:20:33.869Z,5.23
2018-06-04T09:23:10.699Z,4.30
2018-06-04T09:25:46.959Z,4.07
2018-06-04T09:28:24.734Z,4.23
2018-06-04T09:31:01.786Z,3.63
2018-06-04T09:33:38.103Z,4.13
2018-06-04T09:36:15.989Z,4.43
2018-06-04T09:38:55.026Z,3.53
2018-06-04T09:41:31.079Z,3.50
2018-06-04T09:44:08.251Z,3.23
2018-06-04T09:46:45.831Z,5.13
2018-06-04T09:49:22.733Z,3.77
2018-06-04T09:51:58.887Z,3.87
2018-06-04T09:54:34.845Z,3.57
2018-06-04T09:57:10.387Z,3.87
2018-06-04T09:59:49.503Z,3.53
2018-06-04T10:02:25.983Z,3.97
2018-06-04T10:05:03.375Z,5.50
2018-06-04T10:07:38.274Z,3.83
2018-06-04T10:10:14.966Z,3.57
2018-06-04T10:12:50.419Z,3.93
2018-06-04T10:15:27.275Z,4.00
2018-06-04T10:18:02.930Z,4.20
2018-06-04T10:20:38.811Z,3.90
2018-06-04T10:23:13.389Z,4.33
2018-06-04T10:25:48.417Z,4.30
2018-06-04T10:28:26.446Z,5.20
2018-06-04T10:31:02.013Z,4.00
2018-06-04T10:33:37.872Z,3.67
2018-06-04T10:36:15.222Z,3.87
2018-06-04T10:38:51.912Z,4.23
2018-06-04T10:41:28.259Z,4.10
2018-06-04T10:44:05.130Z,3.80
2018-06-04T10:46:40.368Z,4.20
2018-06-04T10:49:16.335Z,4.20
2018-06-04T10:51:52.718Z,4.30
2018-06-04T10:54:28.654Z,4.23
2018-06-04T10:59:37.080Z,4.00
2018-06-04T11:02:12.927Z,4.13
2018-06-04T11:04:47.663Z,4.07
2018-06-04T11:07:24.631Z,4.00
2018-06-04T11:09:59.559Z,4.30
2018-06-04T11:12:36.131Z,4.50
2018-06-04T11:15:13.731Z,5.47
2018-06-04T11:17:48.838Z,4.00
2018-06-04T11:20:26.648Z,4.27
2018-06-04T11:23:03.442Z,4.00
2018-06-04T11:25:39.218Z,4.53
2018-06-04T11:28:16.489Z,3.93
2018-06-04T11:30:54.777Z,4.40
2018-06-04T11:33:32.800Z,4.57
2018-06-04T11:36:08.535Z,4.27
2018-06-04T11:38:45.726Z,5.07
2018-06-04T11:41:23.735Z,4.50
2018-06-04T11:43:59.523Z,4.07
2018-06-04T11:46:37.781Z,4.60
2018-06-04T11:49:15.577Z,4.40
2018-06-04T11:51:52.456Z,4.60
2018-06-04T11:54:28.307Z,4.50
2018-06-04T11:57:06.511Z,4.00
2018-06-04T11:59:44.007Z,4.33
2018-06-04T12:02:19.046Z,6.10
2018-06-04T12:04:55.497Z,4.43
2018-06-04T12:07:30.623Z,4.00
2018-06-04T12:10:07.026Z,4.87
2018-06-04T12:12:44.302Z,4.83
2018-06-04T12:15:20.867Z,4.67
2018-06-04T12:17:58.535Z,4.20
2018-06-04T12:20:34.916Z,3.80
2018-06-04T12:23:12.010Z,4.50
2018-06-04T12:25:47.536Z,4.57
2018-06-04T12:28:24.107Z,4.10
2018-06-04T12:30:59.251Z,4.60
2018-06-04T12:33:36.832Z,4.00
2018-06-04T12:36:14.759Z,4.70
2018-06-04T12:38:51.111Z,4.60
2018-06-04T12:41:28.296Z,4.60
2018-06-04T12:44:05.279Z,4.37
2018-06-04T12:46:42.553Z,4.20
2018-06-04T12:49:19.950Z,4.13
2018-06-04T12:51:57.016Z,4.47
2018-06-04T12:54:33.393Z,4.27
2018-06-04T12:57:09.241Z,3.87
2018-06-04T12:59:46.720Z,3.83
2018-06-04T13:02:22.810Z,4.17
2018-06-04T13:04:57.824Z,3.97
2018-06-04T13:07:33.581Z,4.03
2018-06-04T13:10:10.042Z,3.77
2018-06-04T13:12:48.883Z,4.60
2018-06-04T13:15:28.164Z,4.30
2018-06-04T13:18:05.477Z,3.70
2018-06-04T13:20:40.725Z,4.00
2018-06-04T13:23:17.592Z,3.80
2018-06-04T13:25:53.955Z,3.87
2018-06-04T13:28:29.729Z,4.30
2018-06-04T13:31:07.710Z,4.43
2018-06-04T13:33:44.689Z,5.83
2018-06-04T13:36:20.847Z,4.13
2018-06-04T13:38:57.494Z,4.20
2018-06-04T13:41:33.578Z,4.30
2018-06-04T13:44:08.805Z,3.70
2018-06-04T13:46:45.270Z,3.77
2018-06-04T13:49:20.519Z,3.63
2018-06-04T13:51:59.549Z,3.80
2018-06-04T13:54:36.816Z,3.93
2018-06-04T13:57:14.433Z,3.67
2018-06-04T13:59:49.755Z,4.27
2018-06-04T14:02:27.142Z,4.30
2018-06-04T14:05:04.360Z,4.00
2018-06-04T14:07:40.703Z,4.07
2018-06-04T14:10:16.341Z,3.90
2018-06-04T14:12:55.521Z,4.07
2018-06-04T14:15:34.468Z,3.97
2018-06-04T14:18:09.949Z,4.17
2018-06-04T14:20:46.511Z,3.83
2018-06-04T14:23:27.578Z,3.60
2018-06-04T14:26:04.671Z,3.60
2018-06-04T14:28:40.337Z,3.70
2018-06-04T14:31:17.094Z,3.80
2018-06-04T14:33:56.418Z,3.83
2018-06-04T14:36:32.590Z,5.10
2018-06-04T14:39:10.358Z,4.03
2018-06-04T14:41:45.420Z,5.00
2018-06-04T14:44:22.543Z,4.37
2018-06-04T14:46:59.075Z,4.20
2018-06-04T14:49:35.668Z,3.97
2018-06-04T14:52:14.109Z,4.73
2018-06-04T14:54:49.797Z,4.40
2018-06-04T14:57:28.215Z,4.00
2018-06-04T15:00:05.311Z,7.50
2018-06-04T15:02:43.248Z,5.33
2018-06-04T15:05:19.566Z,5.17
2018-06-04T15:07:56.541Z,5.53
2018-06-04T15:10:35.550Z,5.50
2018-06-04T15:13:12.028Z,4.90
2018-06-04T15:15:47.666Z,4.17
2018-06-04T15:18:24.558Z,4.50
2018-06-04T15:21:00.367Z,4.60
2018-06-04T15:23:37.290Z,5.07
2018-06-04T15:26:14.577Z,4.80
2018-06-04T15:28:49.903Z,4.80
2018-06-04T15:31:26.365Z,5.00
2018-06-04T15:34:03.468Z,5.20
2018-06-04T15:36:38.385Z,5.30
2018-06-04T15:39:16.186Z,5.20
2018-06-04T15:41:52.619Z,5.33
2018-06-04T15:44:28.902Z,5.10
2018-06-04T15:47:04.953Z,4.83
2018-06-04T15:49:40.915Z,4.77
2018-06-04T15:52:17.793Z,4.33
2018-06-04T15:54:53.858Z,4.53
2018-06-04T15:57:28.859Z,5.00
2018-06-04T16:00:04.882Z,4.90
2018-06-04T16:02:39.934Z,5.17
2018-06-04T16:05:17.674Z,5.13
2018-06-04T16:07:54.772Z,5.20
2018-06-04T16:10:29.892Z,5.27
2018-06-04T16:13:07.386Z,4.97
2018-06-04T16:15:44.561Z,4.90
2018-06-04T16:18:22.535Z,4.97
2018-06-04T16:20:57.901Z,5.13
2018-06-04T16:23:35.699Z,4.87
2018-06-04T16:26:11.043Z,6.13
2018-06-04T16:28:47.300Z,5.10
2018-06-04T16:31:24.022Z,5.43
2018-06-04T16:34:00.035Z,4.93
2018-06-04T16:36:38.241Z,5.00
2018-06-04T16:39:14.719Z,4.97
2018-06-04T16:41:50.138Z,5.00
2018-06-04T16:44:26.448Z,4.87
2018-06-04T16:47:05.052Z,5.23
2018-06-04T16:49:39.956Z,6.37
2018-06-04T16:52:17.661Z,4.97
2018-06-04T16:54:58.600Z,6.77
2018-06-04T16:57:50.146Z,6.43
2018-06-04T17:00:27.219Z,4.73
2018-06-04T17:03:04.610Z,5.30
2018-06-04T17:05:41.486Z,4.63
2018-06-04T17:08:17.435Z,5.47
2018-06-04T17:10:54.130Z,4.60
2018-06-04T17:13:29.596Z,4.77
2018-06-04T17:16:07.958Z,5.30
2018-06-04T17:18:45.064Z,6.57
2018-06-04T17:21:20.819Z,5.30
2018-06-04T17:24:00.445Z,5.07
2018-06-04T17:26:38.058Z,5.33
2018-06-04T17:29:16.288Z,4.63
2018-06-04T17:31:52.508Z,5.07
2018-06-04T17:34:28.469Z,5.10
2018-06-04T17:37:06.563Z,5.50
2018-06-04T17:39:45.276Z,4.90
2018-06-04T17:42:21.212Z,4.73
2018-06-04T17:44:58.735Z,5.43
2018-06-04T17:47:35.646Z,4.80
2018-06-04T17:50:12.380Z,5.67
2018-06-04T17:52:49.648Z,5.83
2018-06-04T17:55:28.715Z,4.93
2018-06-04T17:58:09.851Z,5.60
2018-06-04T18:00:48.500Z,5.60
2018-06-04T18:03:27.281Z,5.47
2018-06-04T18:06:05.312Z,5.73
2018-06-04T18:08:43.982Z,5.07
2018-06-04T18:11:21.749Z,4.90
2018-06-04T18:13:59.927Z,5.47
2018-06-04T18:16:36.290Z,5.70
2018-06-04T18:19:12.870Z,5.40
2018-06-04T18:21:48.949Z,5.57
2018-06-04T18:24:26.327Z,5.23
2018-06-04T18:27:02.464Z,5.47
2018-06-04T18:29:37.981Z,5.30
2018-06-04T18:32:15.865Z,5.37
2018-06-04T18:34:55.765Z,5.80
2018-06-04T18:37:34.084Z,5.87
2018-06-04T18:40:10.041Z,5.87
2018-06-04T18:42:48.456Z,5.93
2018-06-04T18:45:24.999Z,6.33
2018-06-04T18:48:03.003Z,6.93
2018-06-04T18:50:39.797Z,5.53
2018-06-04T18:53:17.383Z,6.63
2018-06-04T18:55:56.714Z,6.50
2018-06-04T18:58:35.656Z,5.73
2018-06-04T19:01:12.695Z,7.67
2018-06-04T19:03:49.505Z,6.60
2018-06-04T19:06:27.964Z,8.10
2018-06-04T19:09:06.799Z,6.70
2018-06-04T19:11:45.556Z,6.27
2018-06-04T19:14:24.066Z,7.00
2018-06-04T19:17:00.749Z,7.43
2018-06-04T19:19:39.226Z,6.97
2018-06-04T19:22:17.859Z,6.80
2018-06-04T19:24:58.503Z,6.40
2018-06-04T19:27:35.197Z,6.27
2018-06-04T19:30:17.008Z,6.90
2018-06-04T19:32:55.568Z,6.10
2018-06-04T19:35:35.847Z,6.77
2018-06-04T19:38:11.328Z,7.07
2018-06-04T19:40:49.009Z,7.17
2018-06-04T19:43:27.090Z,6.10
2018-06-04T19:46:02.842Z,6.20
2018-06-04T19:48:38.941Z,6.47
2018-06-04T19:51:16.002Z,6.27
2018-06-04T19:53:54.061Z,6.77
2018-06-04T19:56:29.967Z,7.00
2018-06-04T19:59:09.199Z,6.60
2018-06-04T20:01:47.657Z,5.63
2018-06-04T20:04:23.560Z,6.17
2018-06-04T20:06:59.610Z,6.43
2018-06-04T20:09:39.515Z,6.30
2018-06-04T20:12:16.736Z,6.40
2018-06-04T20:14:54.245Z,6.43
2018-06-04T20:17:29.622Z,9.37
2018-06-04T20:20:08.899Z,5.93
2018-06-04T20:22:47.015Z,6.43
2018-06-04T20:25:42.625Z,8.83
2018-06-04T20:28:19.407Z,6.73
2018-06-04T20:30:57.498Z,7.33
2018-06-04T20:33:46.143Z,6.43
2018-06-04T20:36:23.020Z,7.60
2018-06-04T20:38:59.098Z,6.93
2018-06-04T20:41:34.915Z,6.80
2018-06-04T20:44:10.083Z,6.80
2018-06-04T20:46:49.497Z,7.53
2018-06-04T20:49:26.686Z,8.37
2018-06-04T20:52:04.716Z,6.87
2018-06-04T20:54:40.048Z,7.23
2018-06-04T20:57:16.712Z,6.90
2018-06-04T20:59:53.765Z,7.43
2018-06-04T21:02:29.135Z,9.00
2018-06-04T21:05:05.282Z,7.60
2018-06-04T21:07:41.250Z,9.60
2018-06-04T21:10:18.688Z,8.40
2018-06-04T21:12:57.362Z,10.37
2018-06-04T21:15:37.883Z,8.37
2018-06-04T21:18:17.255Z,7.93
2018-06-04T21:20:54.436Z,10.27
2018-06-04T21:23:29.984Z,8.47
2018-06-04T21:26:06.356Z,8.43
2018-06-04T21:28:44.337Z,7.13
2018-06-04T21:31:19.593Z,9.57
2018-06-04T21:33:56.872Z,8.03
2018-06-04T21:36:33.140Z,7.87
2018-06-04T21:39:10.214Z,9.70
2018-06-04T21:41:48.559Z,7.87
2018-06-04T21:44:25.527Z,8.23
2018-06-04T21:47:01.051Z,7.23
2018-06-04T21:49:38.137Z,8.77
2018-06-04T21:52:15.198Z,8.93
2018-06-04T21:54:51.366Z,7.60
2018-06-04T21:57:29.287Z,8.07
2018-06-04T22:00:10.032Z,9.63
2018-06-04T22:02:47.951Z,7.90
2018-06-04T22:05:24.716Z,8.70
2018-06-04T22:08:01.159Z,8.20
2018-06-04T22:10:37.437Z,8.40
2018-06-04T22:13:14.932Z,8.00
2018-06-04T22:15:50.295Z,8.80
2018-06-04T22:18:27.655Z,8.40
2018-06-04T22:21:03.951Z,8.67
2018-06-04T22:23:39.474Z,8.67
2018-06-04T22:26:16.127Z,12.07
2018-06-04T22:28:52.998Z,10.00
2018-06-04T22:31:28.747Z,8.90
2018-06-04T22:34:06.767Z,8.53
2018-06-04T22:36:44.154Z,8.10
2018-06-04T22:39:19.818Z,8.27
2018-06-04T22:41:56.466Z,10.10
2018-06-04T22:44:33.556Z,8.73
2018-06-04T22:47:09.094Z,9.27
2018-06-04T22:49:46.995Z,10.33
2018-06-04T22:52:22.951Z,9.17
2018-06-04T22:54:58.798Z,8.77
2018-06-04T22:57:35.071Z,8.73
2018-06-04T23:00:12.568Z,9.67
2018-06-04T23:02:49.731Z,9.73
2018-06-04T23:05:26.188Z,9.73
2018-06-04T23:08:01.965Z,9.67
2018-06-04T23:10:37.518Z,9.20
2018-06-04T23:13:14.379Z,9.27
2018-06-04T23:15:50.968Z,12.27
2018-06-04T23:18:26.996Z,9.93
2018-06-04T23:21:02.878Z,9.23
2018-06-04T23:23:38.409Z,9.73
2018-06-04T23:26:14.253Z,9.83
2018-06-04T23:28:49.901Z,9.87
2018-06-04T23:31:26.261Z,10.20
2018-06-04T23:34:01.707Z,9.90
2018-06-04T23:36:38.281Z,9.73
2018-06-04T23:39:14.951Z,9.57
2018-06-04T23:41:51.935Z,9.67
2018-06-04T23:44:27.987Z,10.13
2018-06-04T23:47:04.275Z,14.80
2018-06-04T23:49:39.989Z,10.50
2018-06-04T23:52:17.379Z,9.73
2018-06-04T23:54:54.051Z,10.43
2018-06-04T23:57:29.398Z,10.10
